createdAt,value
2017-10-25T00:05:24.000Z,69.5
2017-10-25T00:15:24.000Z,69.4
2017-10-25T00:25:24.000Z,69.6
2017-10-25T00:35:24.000Z,69.5
2017-10-25T00:45:24.000Z,69.6
2017-10-25T00:55:24.000Z,69.7
2017-10-25T01:05:25.000Z,69.6
2017-10-25T01:15:24.000Z,69.5
2017-10-25T01:25:24.000Z,69.5
2017-10-25T01:35:24.000Z,69.2
2017-10-25T01:45:24.000Z,69.4
2017-10-25T01:55:25.000Z,69.3
2017-10-25T02:05:25.000Z,69.1
2017-10-25T02:15:25.000Z,69
2017-10-25T02:25:25.000Z,68.9
2017-10-25T02:35:25.000Z,68.8
2017-10-25T02:45:25.000Z,68.7
2017-10-25T02:55:25.000Z,68.5
2017-10-25T03:05:25.000Z,68.7
2017-10-25T03:15:25.000Z,69.2
2017-10-25T03:25:25.000Z,69.5
2017-10-25T03:35:25.000Z,70
2017-10-25T03:45:25.000Z,70.1
2017-10-25T03:55:25.000Z,69.9
2017-10-25T04:05:25.000Z,70.2
2017-10-25T04:15:25.000Z,69.9
2017-10-25T04:25:25.000Z,69.5
2017-10-25T04:35:25.000Z,69.4
2017-10-25T04:45:25.000Z,69.2
2017-10-25T04:55:25.000Z,69.2
2017-10-25T05:05:25.000Z,69.3
2017-10-25T05:15:25.000Z,69.2
2017-10-25T05:25:25.000Z,69.1
2017-10-25T05:35:25.000Z,69.1
2017-10-25T05:45:25.000Z,69.2
2017-10-25T05:55:25.000Z,69.2
2017-10-25T06:05:25.000Z,69.2
2017-10-25T06:15:26.000Z,69.1
2017-10-25T06:25:25.000Z,69.1
2017-10-25T06:35:25.000Z,69.1
2017-10-25T06:45:25.000Z,69
2017-10-25T06:55:25.000Z,69
2017-10-25T07:05:25.000Z,69
2017-10-25T07:15:25.000Z,69.1
2017-10-25T07:25:25.000Z,69
2017-10-25T07:45:25.000Z,69
2017-10-25T07:55:25.000Z,68.9
2017-10-25T08:05:26.000Z,68.9
2017-10-25T08:15:25.000Z,68.8
2017-10-25T08:25:25.000Z,68.6
2017-10-25T08:35:25.000Z,68.5
2017-10-25T08:45:25.000Z,68.5
2017-10-25T08:55:26.000Z,68.7
2017-10-25T09:05:29.000Z,68.6
2017-10-25T09:15:26.000Z,68.7
2017-10-25T09:25:26.000Z,68.7
2017-10-25T09:35:26.000Z,68.7
2017-10-25T09:45:28.000Z,68.8
2017-10-25T09:55:26.000Z,68.8
2017-10-25T10:05:30.000Z,68.7
2017-10-25T10:15:26.000Z,68.8
2017-10-25T10:25:26.000Z,68.6
2017-10-25T10:35:26.000Z,68.8
2017-10-25T10:45:26.000Z,68.6
2017-10-25T10:55:26.000Z,68.6
2017-10-25T11:05:28.000Z,68.5
2017-10-25T11:15:26.000Z,68.6
2017-10-25T11:25:29.000Z,68.7
2017-10-25T11:35:27.000Z,68.7
2017-10-25T11:45:26.000Z,68.7
2017-10-25T11:55:26.000Z,68.7
2017-10-25T12:05:26.000Z,68.6
2017-10-25T12:15:26.000Z,68.6
2017-10-25T12:25:26.000Z,68.6
2017-10-25T12:35:26.000Z,68.6
2017-10-25T12:45:26.000Z,68.6
2017-10-25T12:55:26.000Z,68.5
2017-10-25T13:05:26.000Z,68.6
2017-10-25T13:15:28.000Z,68.5
2017-10-25T13:25:26.000Z,68.6
2017-10-25T13:35:26.000Z,68.4
2017-10-25T13:45:26.000Z,68.4
2017-10-25T13:55:26.000Z,68.5
2017-10-25T14:05:26.000Z,68.5
2017-10-25T14:15:26.000Z,68.4
2017-10-25T14:25:26.000Z,68.3
2017-10-25T14:35:26.000Z,68.4
2017-10-25T14:45:26.000Z,68.4
2017-10-25T14:55:26.000Z,68.4
2017-10-25T15:05:26.000Z,68.4
2017-10-25T15:15:26.000Z,68.3
2017-10-25T15:25:26.000Z,68.2
2017-10-25T15:35:28.000Z,68.1
2017-10-25T15:45:27.000Z,68.1
2017-10-25T15:55:27.000Z,68.1
2017-10-25T16:05:27.000Z,68.1
2017-10-25T16:15:27.000Z,68
2017-10-25T16:35:27.000Z,68.1
2017-10-25T16:45:27.000Z,68
2017-10-25T16:55:27.000Z,67.9
2017-10-25T17:05:27.000Z,67.9
2017-10-25T17:15:27.000Z,67.9
2017-10-25T17:25:27.000Z,67.8
2017-10-25T17:35:27.000Z,67.9
2017-10-25T17:45:27.000Z,67.6
2017-10-25T17:55:27.000Z,67.5
2017-10-25T18:05:27.000Z,67.6
2017-10-25T18:25:27.000Z,67.5
2017-10-25T18:45:27.000Z,67.5
2017-10-25T18:55:27.000Z,68
2017-10-25T19:05:27.000Z,67.5
2017-10-25T19:15:27.000Z,67.3
2017-10-25T19:25:27.000Z,67.2
2017-10-25T19:35:27.000Z,67.1
2017-10-25T19:45:27.000Z,67.1
2017-10-25T19:55:27.000Z,67
2017-10-25T20:05:27.000Z,67.1
2017-10-25T20:15:27.000Z,67
2017-10-25T20:25:27.000Z,67.1
2017-10-25T20:35:27.000Z,67
2017-10-25T20:45:27.000Z,67
2017-10-25T20:55:27.000Z,66.9
2017-10-25T21:05:27.000Z,66.9
2017-10-25T21:15:27.000Z,67
2017-10-25T21:25:27.000Z,66.9
2017-10-25T21:35:27.000Z,66.8
2017-10-25T21:45:27.000Z,66.8
2017-10-25T21:55:27.000Z,66.7
2017-10-25T22:05:27.000Z,66.8
2017-10-25T22:15:27.000Z,66.8
2017-10-25T22:25:27.000Z,67.1
2017-10-25T22:35:27.000Z,67.3
2017-10-25T22:45:28.000Z,67.2
2017-10-25T22:55:28.000Z,67.3
2017-10-25T23:05:28.000Z,67.4
2017-10-25T23:15:28.000Z,67.7
2017-10-25T23:25:28.000Z,67.8
2017-10-25T23:35:28.000Z,67.7
2017-10-25T23:45:28.000Z,68.1
2017-10-25T23:55:28.000Z,68.1
